Agen-La Garenne Airport

LFBA · Lot-et-Garonne, Aquitaine-Limousin-Poitou-Charentes, France

METAR anciennes LFBA · Aéroport Agen-La Garenne

Tu vois ci-dessous les METAR des derniers jours. Sélectionne une année pour parcourir les METAR plus anciens, à partir de l'année 2007.

22 avril 2024

Temps Code Temps Temp. Vue Base cloud Vent METAR/SPECI
10:30
V
10 °C 10 km+ - 330° 330° 7 kt METAR LFBA 220830Z AUTO 33007KT 280V010 9999 FEW041 10/01 Q1023 NOSIG
10:00
V
9 °C 10 km+ - 360° 360° 6 kt METAR LFBA 220800Z AUTO 36006KT 320V040 CAVOK 09/01 Q1023 NOSIG
09:30
V
8 °C 10 km+ - 310° 310° 6 kt METAR LFBA 220730Z AUTO 31006KT CAVOK 08/01 Q1023 NOSIG
09:00
V
7 °C 10 km+ - 310° 310° 7 kt METAR LFBA 220700Z AUTO 31007KT CAVOK 07/01 Q1023 NOSIG
08:30
V
6 °C 10 km+ - 280° 280° 5 kt METAR LFBA 220630Z AUTO 28005KT CAVOK 06/01 Q1023 NOSIG
08:00
V
5 °C 10 km+ - 280° 280° 5 kt METAR LFBA 220600Z AUTO 28005KT CAVOK 05/00 Q1023 NOSIG
07:30
V
4 °C 10 km+ - 270° 270° 5 kt METAR LFBA 220530Z AUTO 27005KT CAVOK 04/M00 Q1023 BECMG 35010KT
07:00
V
4 °C 10 km+ - 280° 280° 6 kt METAR LFBA 220500Z AUTO 28006KT CAVOK 04/M01 Q1022 NOSIG
06:30
V
3 °C 10 km+ - 280° 280° 6 kt METAR LFBA 220430Z AUTO 28006KT CAVOK 03/M01 Q1022 NOSIG
06:00
V
4 °C 10 km+ - 280° 280° 5 kt METAR LFBA 220400Z AUTO 28005KT CAVOK 04/M01 Q1022 NOSIG
05:30
V
4 °C 10 km+ - 280° 280° 5 kt METAR LFBA 220330Z AUTO 28005KT CAVOK 04/M01 Q1022 NOSIG
05:00
V
2 °C 10 km+ - 310° 310° 7 kt METAR LFBA 220300Z AUTO 31007KT CAVOK 02/M01 Q1022
04:30
V
4 °C 10 km+ - 260° 260° 3 kt METAR LFBA 220230Z AUTO 26003KT 230V300 CAVOK 04/M01 Q1022
04:00
V
4 °C 10 km+ - 220° 220° 3 kt METAR LFBA 220200Z AUTO 22003KT CAVOK 04/M01 Q1022
03:30
V
5 °C 10 km+ - Var Var 3 kt METAR LFBA 220130Z AUTO VRB03KT CAVOK 05/M01 Q1022
03:00
V
5 °C 10 km+ - Var Var 3 kt METAR LFBA 220100Z AUTO VRB03KT CAVOK 05/M01 Q1022
02:30
V
5 °C 10 km+ - Var Var 3 kt METAR LFBA 220030Z AUTO VRB03KT CAVOK 05/M01 Q1022
02:00
V
5 °C 10 km+ - 230° 230° 3 kt METAR LFBA 220000Z AUTO 23003KT CAVOK 05/M01 Q1022
01:30
V
5 °C 10 km+ - Var Var 3 kt METAR LFBA 212330Z AUTO VRB03KT CAVOK 05/M01 Q1022
01:00
V
6 °C 10 km+ - Var Var 2 kt METAR LFBA 212300Z AUTO VRB02KT CAVOK 06/M01 Q1022
00:30
V
7 °C 10 km+ - 280° 280° 4 kt METAR LFBA 212230Z AUTO 28004KT CAVOK 07/M01 Q1022
00:00
V
7 °C 10 km+ - 290° 290° 3 kt METAR LFBA 212200Z AUTO 29003KT CAVOK 07/M02 Q1022

21 avril 2024

Temps Code Temps Temp. Vue Base cloud Vent METAR/SPECI
23:30
V
7 °C 10 km+ - 330° 330° 4 kt METAR LFBA 212130Z AUTO 33004KT CAVOK 07/M02 Q1022
23:00
V
9 °C 10 km+ - 360° 360° 4 kt METAR LFBA 212100Z AUTO 36004KT CAVOK 09/M02 Q1022
22:30
V
9 °C 10 km+ - 360° 360° 6 kt METAR LFBA 212030Z AUTO 36006KT CAVOK 09/M02 Q1022 NOSIG
22:00
V
10 °C 10 km+ - 010° 010° 9 kt METAR LFBA 212000Z AUTO 01009KT CAVOK 10/M02 Q1021 NOSIG
21:30
V
11 °C 10 km+ - 010° 010° 9 kt METAR LFBA 211930Z AUTO 01009KT 350V050 CAVOK 11/M02 Q1021 NOSIG
21:00
V
12 °C 10 km+ - 010° 010° 8 kt METAR LFBA 211900Z AUTO 01008KT 350V050 CAVOK 12/M01 Q1020 NOSIG
20:30
V
13 °C 10 km+ - 010° 010° 11 kt METAR LFBA 211830Z AUTO 01011KT 340V040 CAVOK 13/M01 Q1020 NOSIG
20:00
V
14 °C 10 km+ - 010° 010° 11 kt METAR LFBA 211800Z AUTO 01011KT 340V040 CAVOK 14/00 Q1020 NOSIG
19:30
V
14 °C 10 km+ - 010° 010° 12 kt METAR LFBA 211730Z AUTO 01012KT 340V040 CAVOK 14/01 Q1019 NOSIG
19:00
V
15 °C 10 km+ - 350° 350° 11 kt METAR LFBA 211700Z AUTO 35011KT CAVOK 15/01 Q1019 NOSIG
18:30
V
16 °C 10 km+ - 360° 360° 11 kt METAR LFBA 211630Z AUTO 36011KT CAVOK 16/01 Q1019 NOSIG
18:00
V
16 °C 10 km+ - 350° 350° 12 kt METAR LFBA 211600Z AUTO 35012KT 320V030 CAVOK 16/01 Q1019 NOSIG
17:30
V
16 °C 10 km+ - 340° 340° 12 kt METAR LFBA 211530Z AUTO 34012KT 320V020 CAVOK 16/02 Q1019 NOSIG
17:00
V
16 °C 10 km+ - 350° 350° 12 kt METAR LFBA 211500Z AUTO 35012KT 300V030 CAVOK 16/01 Q1019 NOSIG
16:30
V
16 °C 10 km+ - 340° 340° 10 kt METAR LFBA 211430Z AUTO 34010KT 300V030 CAVOK 16/02 Q1019 NOSIG
16:00
V
16 °C 10 km+ - 340° 340° 12 kt METAR LFBA 211400Z AUTO 34012KT 310V020 CAVOK 16/03 Q1019 NOSIG
15:30
V
16 °C 10 km+ - 320° 320° 13 kt METAR LFBA 211330Z AUTO 32013KT 290V350 CAVOK 16/02 Q1020 NOSIG
15:00
V
16 °C 10 km+ - 330° 330° 11 kt METAR LFBA 211300Z AUTO 33011KT CAVOK 16/03 Q1020 NOSIG
14:30
V
16 °C 10 km+ - 340° 340° 9 kt METAR LFBA 211230Z AUTO 34009KT 290V010 CAVOK 16/04 Q1020 NOSIG
14:00
V
15 °C 10 km+ - 320° 320° 10 kt METAR LFBA 211200Z AUTO 32010KT 270V360 CAVOK 15/02 Q1020 NOSIG
13:30
V
15 °C 10 km+ - 340° 340° 8 kt METAR LFBA 211130Z AUTO 34008KT 290V040 CAVOK 15/03 Q1021 NOSIG
13:00
V
14 °C 10 km+ - 340° 340° 10 kt METAR LFBA 211100Z AUTO 34010KT 270V020 CAVOK 14/03 Q1021 NOSIG
12:30
V
13 °C 10 km+ - 360° 360° 6 kt METAR LFBA 211030Z AUTO 36006KT 300V060 CAVOK 13/01 Q1021 NOSIG
12:00
V
13 °C 10 km+ - 020° 020° 7 kt METAR LFBA 211000Z AUTO 02007KT 360V060 CAVOK 13/02 Q1021 NOSIG
11:30
V
12 °C 10 km+ - Var Var 4 kt METAR LFBA 210930Z AUTO VRB04KT CAVOK 12/01 Q1021 NOSIG
11:00
V
11 °C 10 km+ - 020° 020° 5 kt METAR LFBA 210900Z AUTO 02005KT 330V080 CAVOK 11/02 Q1022 NOSIG
10:30
V
10 °C 10 km+ - 360° 360° 4 kt METAR LFBA 210830Z AUTO 36004KT 310V070 CAVOK 10/02 Q1022 NOSIG
10:00
V
9 °C 10 km+ - 340° 340° 5 kt METAR LFBA 210800Z AUTO 34005KT 290V060 CAVOK 09/02 Q1022 NOSIG
09:30
V
8 °C 10 km+ - 350° 350° 3 kt METAR LFBA 210730Z AUTO 35003KT 310V050 CAVOK 08/02 Q1022 NOSIG
09:00
V
7 °C 10 km+ - 310° 310° 4 kt METAR LFBA 210700Z AUTO 31004KT 270V350 CAVOK 07/01 Q1022 NOSIG
08:30
V
6 °C 10 km+ - 290° 290° 4 kt METAR LFBA 210630Z AUTO 29004KT CAVOK 06/01 Q1022 NOSIG
08:00
V
4 °C 10 km+ - 280° 280° 4 kt METAR LFBA 210600Z AUTO 28004KT CAVOK 04/00 Q1022 NOSIG
07:30
V
2 °C 10 km+ - Var Var 2 kt METAR LFBA 210530Z AUTO VRB02KT CAVOK 02/M01 Q1022 NOSIG
07:00
V
3 °C 10 km+ - Var Var 2 kt METAR LFBA 210500Z AUTO VRB02KT CAVOK 03/M01 Q1021 NOSIG
06:30
V
3 °C 10 km+ - 270° 270° 3 kt METAR LFBA 210430Z AUTO 27003KT CAVOK 03/M01 Q1021 NOSIG
06:00
V
4 °C 10 km+ - 250° 250° 3 kt METAR LFBA 210400Z AUTO 25003KT CAVOK 04/M00 Q1021 NOSIG
05:30
V
4 °C 10 km+ - 270° 270° 3 kt METAR LFBA 210330Z AUTO 27003KT CAVOK 04/M01 Q1021 NOSIG
05:00
V
4 °C 10 km+ - 260° 260° 3 kt METAR LFBA 210300Z AUTO 26003KT CAVOK 04/M00 Q1021
04:30
V
4 °C 10 km+ - 270° 270° 3 kt METAR LFBA 210230Z AUTO 27003KT CAVOK 04/00 Q1022
04:00
V
4 °C 10 km+ - 270° 270° 2 kt METAR LFBA 210200Z AUTO 27002KT CAVOK 04/M00 Q1022
03:30
V
5 °C 10 km+ - 280° 280° 3 kt METAR LFBA 210130Z AUTO 28003KT CAVOK 05/M00 Q1022
03:00
V
6 °C 10 km+ - Var Var 1 kt METAR LFBA 210100Z AUTO VRB01KT CAVOK 06/M00 Q1022
02:30
V
7 °C 10 km+ - Var Var 2 kt METAR LFBA 210030Z AUTO VRB02KT CAVOK 07/M01 Q1022
02:00
V
8 °C 10 km+ - 040° 040° 4 kt METAR LFBA 210000Z AUTO 04004KT 010V070 CAVOK 08/M01 Q1022
01:30
V
8 °C 10 km+ - 030° 030° 3 kt METAR LFBA 202330Z AUTO 03003KT 360V060 CAVOK 08/M01 Q1022
01:00
V
9 °C 10 km+ - 040° 040° 5 kt METAR LFBA 202300Z AUTO 04005KT 350V070 CAVOK 09/M00 Q1022
00:30
V
8 °C 10 km+ - Var Var 3 kt METAR LFBA 202230Z AUTO VRB03KT CAVOK 08/M00 Q1022
00:00
V
9 °C 10 km+ - 320° 320° 3 kt METAR LFBA 202200Z AUTO 32003KT 280V350 CAVOK 09/M00 Q1022

20 avril 2024

Temps Code Temps Temp. Vue Base cloud Vent METAR/SPECI
23:30
V
10 °C 10 km+ - Var Var 3 kt METAR LFBA 202130Z AUTO VRB03KT CAVOK 10/M00 Q1022
23:00
V
11 °C 10 km+ - 020° 020° 6 kt METAR LFBA 202100Z AUTO 02006KT 340V050 CAVOK 11/M00 Q1022
22:30
V
11 °C 10 km+ - 350° 350° 5 kt METAR LFBA 202030Z AUTO 35005KT 310V020 CAVOK 11/M00 Q1022
22:00
V
12 °C 10 km+ - 010° 010° 5 kt METAR LFBA 202000Z AUTO 01005KT 330V050 CAVOK 12/M00 Q1021 NOSIG
21:30
V
12 °C 10 km+ - 010° 010° 5 kt METAR LFBA 201930Z AUTO 01005KT 340V040 CAVOK 12/M00 Q1021 NOSIG
21:00
V
13 °C 10 km+ - 010° 010° 8 kt METAR LFBA 201900Z AUTO 01008KT CAVOK 13/M00 Q1020 NOSIG
20:30
V
15 °C 10 km+ - 010° 010° 8 kt METAR LFBA 201830Z AUTO 01008KT 340V040 CAVOK 15/M00 Q1020 NOSIG
20:00
V
15 °C 10 km+ - 010° 010° 9 kt METAR LFBA 201800Z AUTO 01009KT 340V040 CAVOK 15/M01 Q1020 NOSIG
19:30
V
16 °C 10 km+ - 010° 010° 10 kt METAR LFBA 201730Z AUTO 01010KT 330V050 CAVOK 16/M01 Q1020 NOSIG
19:00
V
17 °C 10 km+ - 010° 010° 8 kt METAR LFBA 201700Z AUTO 01008KT CAVOK 17/M00 Q1020 NOSIG
18:30
V
17 °C 10 km+ - 010° 010° 10 kt METAR LFBA 201630Z AUTO 01010KT 330V040 CAVOK 17/M00 Q1020 NOSIG
18:00
V
17 °C 10 km+ - 010° 010° 10 kt METAR LFBA 201600Z AUTO 01010KT 310V050 CAVOK 17/00 Q1020 NOSIG
17:30
V
18 °C 10 km+ - 360° 360° 9 kt METAR LFBA 201530Z AUTO 36009KT 330V040 CAVOK 18/02 Q1020 NOSIG
17:00
V
18 °C 10 km+ - 340° 340° 11 kt METAR LFBA 201500Z AUTO 34011KT 310V030 CAVOK 18/01 Q1020 NOSIG
16:30
V
18 °C 10 km+ - 010° 010° 11 kt METAR LFBA 201430Z AUTO 01011KT 340V040 CAVOK 18/04 Q1020 NOSIG
16:00
V
18 °C 10 km+ - 340° 340° 8 kt METAR LFBA 201400Z AUTO 34008KT 300V040 CAVOK 18/05 Q1020 NOSIG
15:30
V
18 °C 10 km+ - 350° 350° 9 kt METAR LFBA 201330Z AUTO 35009KT 320V040 CAVOK 18/04 Q1021 NOSIG
15:00
V
18 °C 10 km+ - 340° 340° 11 kt METAR LFBA 201300Z AUTO 34011KT CAVOK 18/04 Q1021 NOSIG
14:30
V
18 °C 10 km+ - 340° 340° 10 kt METAR LFBA 201230Z AUTO 34010KT 280V020 CAVOK 18/06 Q1021 NOSIG
14:00
V
17 °C 10 km+ - 360° 360° 11 kt METAR LFBA 201200Z AUTO 36011KT 330V050 CAVOK 17/04 Q1021 NOSIG
13:30
V
17 °C 10 km+ - 010° 010° 8 kt METAR LFBA 201130Z AUTO 01008KT 330V060 CAVOK 17/04 Q1021 NOSIG
13:00
V
17 °C 10 km+ - 020° 020° 9 kt METAR LFBA 201100Z AUTO 02009KT 350V080 CAVOK 17/04 Q1021 NOSIG
12:30
V
17 °C 10 km+ - 040° 040° 6 kt METAR LFBA 201030Z AUTO 04006KT 350V080 9999 FEW042 17/07 Q1021 NOSIG
12:00
V
17 °C 10 km+ - 040° 040° 8 kt METAR LFBA 201000Z AUTO 04008KT 330V070 9999 FEW039 17/06 Q1021 NOSIG
11:30
V
16 °C 10 km+ - 060° 060° 8 kt METAR LFBA 200930Z AUTO 06008KT 030V090 CAVOK 16/07 Q1022 NOSIG
11:00
V
15 °C 10 km+ - Var Var 4 kt METAR LFBA 200900Z AUTO VRB04KT CAVOK 15/07 Q1022 NOSIG
10:30
V
14 °C 10 km+ - Var Var 3 kt METAR LFBA 200830Z AUTO VRB03KT CAVOK 14/07 Q1022 NOSIG
10:00
V
12 °C 10 km+ - 300° 300° 4 kt METAR LFBA 200800Z AUTO 30004KT 270V330 CAVOK 12/07 Q1022 NOSIG
09:30
V
11 °C 10 km+ - 290° 290° 4 kt METAR LFBA 200730Z AUTO 29004KT CAVOK 11/06 Q1021 NOSIG
09:00
V
10 °C 10 km+ - 290° 290° 5 kt METAR LFBA 200700Z AUTO 29005KT CAVOK 10/06 Q1021 NOSIG
08:30
V
10 °C 10 km+ - 280° 280° 4 kt METAR LFBA 200630Z AUTO 28004KT CAVOK 10/06 Q1021 NOSIG
08:00
V
8 °C 10 km+ - 260° 260° 3 kt METAR LFBA 200600Z AUTO 26003KT CAVOK 08/05 Q1021 NOSIG
Signaler les modifications